sensor_id;sensor_type;location;lat;lon;timestamp;pressure;altitude;pressure_sealevel;temperature;humidity
49947;BME280;35839;48.662;13.300;2023-04-29T05:07:00;96983.09;;;15.36;100.00
49947;BME280;35839;48.662;13.300;2023-04-29T05:09:26;96981.28;;;15.15;100.00
49947;BME280;35839;48.662;13.300;2023-04-29T05:11:51;96985.63;;;15.02;100.00
49947;BME280;35839;48.662;13.300;2023-04-29T05:14:16;96986.25;;;15.04;100.00
49947;BME280;35839;48.662;13.300;2023-04-29T05:16:42;96980.34;;;15.23;100.00
49947;BME280;35839;48.662;13.300;2023-04-29T05:19:09;96989.13;;;14.87;100.00
49947;BME280;35839;48.662;13.300;2023-04-29T05:21:35;97004.19;;;14.93;100.00
49947;BME280;35839;48.662;13.300;2023-04-29T05:24:00;96994.88;;;15.41;100.00
49947;BME280;35839;48.662;13.300;2023-04-29T05:26:25;96995.81;;;15.54;100.00
49947;BME280;35839;48.662;13.300;2023-04-29T05:28:50;96997.53;;;15.62;100.00
49947;BME280;35839;48.662;13.300;2023-04-29T05:31:16;97005.94;;;15.72;100.00
49947;BME280;35839;48.662;13.300;2023-04-29T05:33:41;97004.00;;;15.59;100.00
49947;BME280;35839;48.662;13.300;2023-04-29T05:36:06;97007.81;;;15.78;100.00
49947;BME280;35839;48.662;13.300;2023-04-29T05:38:32;97009.13;;;15.68;100.00
49947;BME280;35839;48.662;13.300;2023-04-29T05:40:57;97007.50;;;15.45;100.00
49947;BME280;35839;48.662;13.300;2023-04-29T05:43:23;97018.25;;;15.65;100.00
49947;BME280;35839;48.662;13.300;2023-04-29T05:45:49;97013.06;;;15.50;100.00
49947;BME280;35839;48.662;13.300;2023-04-29T05:48:14;97026.50;;;15.34;100.00
49947;BME280;35839;48.662;13.300;2023-04-29T05:50:40;97031.31;;;15.52;100.00
49947;BME280;35839;48.662;13.300;2023-04-29T05:53:05;97027.75;;;15.81;100.00
49947;BME280;35839;48.662;13.300;2023-04-29T05:55:30;97033.03;;;15.38;100.00
49947;BME280;35839;48.662;13.300;2023-04-29T05:57:56;97018.16;;;16.01;100.00
49947;BME280;35839;48.662;13.300;2023-04-29T06:00:21;97022.56;;;16.29;100.00
49947;BME280;35839;48.662;13.300;2023-04-29T06:02:47;97027.50;;;16.46;100.00
49947;BME280;35839;48.662;13.300;2023-04-29T06:05:12;97026.63;;;16.25;100.00
49947;BME280;35839;48.662;13.300;2023-04-29T06:07:39;97025.56;;;16.61;100.00
49947;BME280;35839;48.662;13.300;2023-04-29T06:10:06;97027.06;;;16.77;100.00
49947;BME280;35839;48.662;13.300;2023-04-29T06:12:32;97031.09;;;16.73;100.00
49947;BME280;35839;48.662;13.300;2023-04-29T06:14:57;97036.28;;;16.46;100.00
49947;BME280;35839;48.662;13.300;2023-04-29T06:17:22;97039.25;;;16.78;100.00
49947;BME280;35839;48.662;13.300;2023-04-29T06:19:48;97043.28;;;16.67;100.00
49947;BME280;35839;48.662;13.300;2023-04-29T06:22:13;97050.97;;;16.55;100.00
49947;BME280;35839;48.662;13.300;2023-04-29T06:24:38;97057.34;;;15.33;100.00
49947;BME280;35839;48.662;13.300;2023-04-29T06:27:03;97054.09;;;16.02;100.00
49947;BME280;35839;48.662;13.300;2023-04-29T06:29:29;97050.47;;;16.10;100.00
49947;BME280;35839;48.662;13.300;2023-04-29T06:31:54;97053.19;;;15.67;100.00
49947;BME280;35839;48.662;13.300;2023-04-29T06:34:20;97055.78;;;15.39;100.00
49947;BME280;35839;48.662;13.300;2023-04-29T06:36:46;97057.38;;;16.05;100.00
49947;BME280;35839;48.662;13.300;2023-04-29T06:39:11;97055.69;;;16.25;100.00
49947;BME280;35839;48.662;13.300;2023-04-29T06:41:37;97055.72;;;16.38;100.00
49947;BME280;35839;48.662;13.300;2023-04-29T06:44:02;97051.66;;;16.36;100.00
49947;BME280;35839;48.662;13.300;2023-04-29T06:46:27;97050.06;;;15.78;100.00
49947;BME280;35839;48.662;13.300;2023-04-29T06:48:53;97052.13;;;15.40;100.00
49947;BME280;35839;48.662;13.300;2023-04-29T06:51:18;97049.28;;;16.13;100.00
49947;BME280;35839;48.662;13.300;2023-04-29T06:53:44;97054.06;;;16.31;100.00
49947;BME280;35839;48.662;13.300;2023-04-29T06:56:10;97051.78;;;16.56;100.00
49947;BME280;35839;48.662;13.300;2023-04-29T06:58:35;97053.22;;;17.13;100.00
49947;BME280;35839;48.662;13.300;2023-04-29T07:01:01;97058.31;;;16.67;100.00
49947;BME280;35839;48.662;13.300;2023-04-29T07:03:28;97057.94;;;16.70;100.00
49947;BME280;35839;48.662;13.300;2023-04-29T07:05:53;97063.59;;;16.67;100.00
49947;BME280;35839;48.662;13.300;2023-04-29T07:08:19;97073.53;;;16.23;100.00
49947;BME280;35839;48.662;13.300;2023-04-29T07:10:55;97065.13;;;16.82;100.00
49947;BME280;35839;48.662;13.300;2023-04-29T07:13:20;97077.03;;;16.30;100.00
49947;BME280;35839;48.662;13.300;2023-04-29T07:15:46;97061.94;;;16.94;100.00
49947;BME280;35839;48.662;13.300;2023-04-29T07:18:11;97068.66;;;16.96;100.00
49947;BME280;35839;48.662;13.300;2023-04-29T07:20:37;97072.44;;;16.11;100.00
49947;BME280;35839;48.662;13.300;2023-04-29T07:23:02;97071.72;;;16.58;100.00
49947;BME280;35839;48.662;13.300;2023-04-29T07:25:27;97070.81;;;16.79;100.00
49947;BME280;35839;48.662;13.300;2023-04-29T07:27:53;97074.72;;;16.83;100.00
49947;BME280;35839;48.662;13.300;2023-04-29T07:30:19;97078.09;;;16.77;100.00
49947;BME280;35839;48.662;13.300;2023-04-29T07:32:44;97080.09;;;17.10;100.00
49947;BME280;35839;48.662;13.300;2023-04-29T07:35:09;97078.44;;;17.02;100.00
49947;BME280;35839;48.662;13.300;2023-04-29T07:37:34;97078.06;;;17.12;100.00
49947;BME280;35839;48.662;13.300;2023-04-29T07:40:00;97094.34;;;17.09;100.00
49947;BME280;35839;48.662;13.300;2023-04-29T07:42:25;97097.56;;;16.63;100.00
49947;BME280;35839;48.662;13.300;2023-04-29T07:44:50;97090.72;;;17.23;100.00
49947;BME280;35839;48.662;13.300;2023-04-29T07:47:16;97103.28;;;16.38;100.00
49947;BME280;35839;48.662;13.300;2023-04-29T07:49:41;97087.88;;;17.18;100.00
49947;BME280;35839;48.662;13.300;2023-04-29T07:52:07;97098.47;;;17.38;100.00
49947;BME280;35839;48.662;13.300;2023-04-29T07:54:35;97105.13;;;17.89;100.00
49947;BME280;35839;48.662;13.300;2023-04-29T07:57:00;97100.22;;;17.86;100.00
49947;BME280;35839;48.662;13.300;2023-04-29T07:59:27;97099.81;;;17.82;100.00
49947;BME280;35839;48.662;13.300;2023-04-29T08:01:53;97105.66;;;17.71;100.00
49947;BME280;35839;48.662;13.300;2023-04-29T08:04:18;97106.28;;;17.73;100.00
49947;BME280;35839;48.662;13.300;2023-04-29T08:06:43;97111.19;;;18.56;100.00
49947;BME280;35839;48.662;13.300;2023-04-29T08:09:09;97117.28;;;17.70;100.00
49947;BME280;35839;48.662;13.300;2023-04-29T08:11:35;97113.25;;;17.81;100.00
49947;BME280;35839;48.662;13.300;2023-04-29T08:14:00;97111.16;;;17.56;100.00
49947;BME280;35839;48.662;13.300;2023-04-29T08:16:25;97114.22;;;17.73;100.00
49947;BME280;35839;48.662;13.300;2023-04-29T08:18:52;97113.38;;;17.59;100.00
49947;BME280;35839;48.662;13.300;2023-04-29T08:21:18;97118.53;;;18.34;100.00
49947;BME280;35839;48.662;13.300;2023-04-29T08:23:43;97119.72;;;17.65;100.00
49947;BME280;35839;48.662;13.300;2023-04-29T08:26:10;97129.03;;;17.41;100.00
49947;BME280;35839;48.662;13.300;2023-04-29T08:28:37;97114.50;;;17.98;100.00
49947;BME280;35839;48.662;13.300;2023-04-29T08:31:03;97120.47;;;18.99;100.00
49947;BME280;35839;48.662;13.300;2023-04-29T08:33:31;97120.75;;;18.77;100.00
49947;BME280;35839;48.662;13.300;2023-04-29T08:35:57;97128.72;;;18.77;100.00
49947;BME280;35839;48.662;13.300;2023-04-29T08:38:24;97120.94;;;18.69;100.00
49947;BME280;35839;48.662;13.300;2023-04-29T08:40:49;97122.97;;;18.80;100.00
49947;BME280;35839;48.662;13.300;2023-04-29T08:43:15;97128.28;;;18.67;100.00
49947;BME280;35839;48.662;13.300;2023-04-29T08:45:47;97127.91;;;19.60;99.09
49947;BME280;35839;48.662;13.300;2023-04-29T08:48:15;97123.63;;;19.21;100.00
49947;BME280;35839;48.662;13.300;2023-04-29T08:50:41;97125.47;;;19.65;97.65
49947;BME280;35839;48.662;13.300;2023-04-29T08:53:07;97127.59;;;20.13;97.94
49947;BME280;35839;48.662;13.300;2023-04-29T08:55:43;97128.34;;;19.57;96.23
49947;BME280;35839;48.662;13.300;2023-04-29T08:58:09;97133.44;;;19.20;97.02
49947;BME280;35839;48.662;13.300;2023-04-29T09:00:35;97134.88;;;18.31;100.00
49947;BME280;35839;48.662;13.300;2023-04-29T09:03:16;97129.84;;;19.01;96.82
49947;BME280;35839;48.662;13.300;2023-04-29T09:05:47;97124.28;;;20.18;90.04
49947;BME280;35839;48.662;13.300;2023-04-29T09:08:15;97128.56;;;19.55;87.27
49947;BME280;35839;48.662;13.300;2023-04-29T09:10:41;97131.50;;;19.02;96.16
49947;BME280;35839;48.662;13.300;2023-04-29T09:13:06;97127.28;;;20.03;88.12
49947;BME280;35839;48.662;13.300;2023-04-29T09:15:36;97129.53;;;20.25;87.90
49947;BME280;35839;48.662;13.300;2023-04-29T09:18:02;97123.53;;;20.54;85.98
49947;BME280;35839;48.662;13.300;2023-04-29T09:20:29;97129.78;;;20.41;83.06
49947;BME280;35839;48.662;13.300;2023-04-29T09:22:57;97132.78;;;20.02;86.47
49947;BME280;35839;48.662;13.300;2023-04-29T09:25:23;97134.69;;;19.94;85.18
49947;BME280;35839;48.662;13.300;2023-04-29T09:27:48;97133.34;;;19.78;87.15
49947;BME280;35839;48.662;13.300;2023-04-29T09:30:14;97132.50;;;20.16;83.61
49947;BME280;35839;48.662;13.300;2023-04-29T09:32:41;97126.66;;;20.51;84.71
49947;BME280;35839;48.662;13.300;2023-04-29T09:35:26;97124.56;;;20.53;84.18
49947;BME280;35839;48.662;13.300;2023-04-29T09:37:53;97127.22;;;20.53;83.36
49947;BME280;35839;48.662;13.300;2023-04-29T09:40:33;97132.91;;;20.13;81.22
49947;BME280;35839;48.662;13.300;2023-04-29T09:42:59;97134.63;;;19.31;82.99
49947;BME280;35839;48.662;13.300;2023-04-29T09:45:38;97122.47;;;20.37;79.75
49947;BME280;35839;48.662;13.300;2023-04-29T09:48:06;97130.34;;;21.61;77.95
49947;BME280;35839;48.662;13.300;2023-04-29T09:50:36;97136.28;;;21.26;77.76
49947;BME280;35839;48.662;13.300;2023-04-29T09:53:01;97142.47;;;21.57;76.51
49947;BME280;35839;48.662;13.300;2023-04-29T09:55:27;97133.31;;;21.34;77.10
49947;BME280;35839;48.662;13.300;2023-04-29T09:57:54;97129.22;;;20.83;75.24
49947;BME280;35839;48.662;13.300;2023-04-29T10:00:20;97124.31;;;21.35;69.21
49947;BME280;35839;48.662;13.300;2023-04-29T10:02:47;97121.69;;;22.43;67.75
49947;BME280;35839;48.662;13.300;2023-04-29T10:05:16;97113.16;;;22.93;64.85
49947;BME280;35839;48.662;13.300;2023-04-29T10:07:41;97116.78;;;22.87;67.13
49947;BME280;35839;48.662;13.300;2023-04-29T10:10:09;97133.19;;;21.89;71.04
49947;BME280;35839;48.662;13.300;2023-04-29T10:12:35;97130.00;;;21.02;72.91
49947;BME280;35839;48.662;13.300;2023-04-29T10:17:42;97122.94;;;21.14;73.05
49947;BME280;35839;48.662;13.300;2023-04-29T10:20:21;97122.81;;;21.21;76.22
49947;BME280;35839;48.662;13.300;2023-04-29T10:22:48;97117.66;;;22.40;70.09
49947;BME280;35839;48.662;13.300;2023-04-29T10:25:15;97114.13;;;22.28;67.73
49947;BME280;35839;48.662;13.300;2023-04-29T10:27:41;97107.41;;;22.25;68.39
49947;BME280;35839;48.662;13.300;2023-04-29T10:30:11;97114.00;;;22.82;67.21
49947;BME280;35839;48.662;13.300;2023-04-29T10:32:39;97114.16;;;22.75;68.70
49947;BME280;35839;48.662;13.300;2023-04-29T10:35:07;97110.97;;;22.90;63.84
49947;BME280;35839;48.662;13.300;2023-04-29T10:37:34;97115.50;;;23.42;60.01
49947;BME280;35839;48.662;13.300;2023-04-29T10:42:51;97102.88;;;22.73;64.93
49947;BME280;35839;48.662;13.300;2023-04-29T10:45:26;97103.53;;;21.98;63.73
49947;BME280;35839;48.662;13.300;2023-04-29T10:50:58;97094.38;;;24.03;61.20
49947;BME280;35839;48.662;13.300;2023-04-29T10:53:23;97088.56;;;24.23;62.32
49947;BME280;35839;48.662;13.300;2023-04-29T10:55:53;97086.09;;;24.55;61.74
49947;BME280;35839;48.662;13.300;2023-04-29T11:01:12;97083.44;;;24.04;53.41
49947;BME280;35839;48.662;13.300;2023-04-29T11:06:21;97072.84;;;23.92;56.42
49947;BME280;35839;48.662;13.300;2023-04-29T11:08:58;97074.44;;;23.19;57.89
49947;BME280;35839;48.662;13.300;2023-04-29T11:11:25;97082.91;;;23.28;61.86
49947;BME280;35839;48.662;13.300;2023-04-29T11:13:51;97084.09;;;22.80;57.47
49947;BME280;35839;48.662;13.300;2023-04-29T11:16:24;97073.03;;;22.88;58.80
49947;BME280;35839;48.662;13.300;2023-04-29T11:19:06;97071.44;;;22.63;61.94
49947;BME280;35839;48.662;13.300;2023-04-29T11:21:33;97073.22;;;21.57;67.82
49947;BME280;35839;48.662;13.300;2023-04-29T11:24:01;97078.41;;;22.05;65.46
49947;BME280;35839;48.662;13.300;2023-04-29T11:26:27;97076.69;;;22.46;65.72
49947;BME280;35839;48.662;13.300;2023-04-29T11:28:55;97076.31;;;22.19;66.23
49947;BME280;35839;48.662;13.300;2023-04-29T11:31:25;97075.34;;;22.72;66.50
49947;BME280;35839;48.662;13.300;2023-04-29T11:33:52;97080.63;;;23.20;63.04
49947;BME280;35839;48.662;13.300;2023-04-29T11:36:18;97076.06;;;22.80;63.19
49947;BME280;35839;48.662;13.300;2023-04-29T11:38:43;97074.13;;;23.16;64.07
49947;BME280;35839;48.662;13.300;2023-04-29T11:41:10;97083.97;;;23.27;62.57
49947;BME280;35839;48.662;13.300;2023-04-29T11:43:35;97090.00;;;22.58;64.60
49947;BME280;35839;48.662;13.300;2023-04-29T11:46:11;97090.44;;;21.24;63.67
49947;BME280;35839;48.662;13.300;2023-04-29T11:48:36;97080.81;;;21.41;59.98
49947;BME280;35839;48.662;13.300;2023-04-29T11:51:01;97107.13;;;20.14;63.23
49947;BME280;35839;48.662;13.300;2023-04-29T11:53:27;97097.56;;;20.56;65.20
49947;BME280;35839;48.662;13.300;2023-04-29T11:55:53;97104.47;;;20.14;68.54
49947;BME280;35839;48.662;13.300;2023-04-29T11:58:22;97104.00;;;19.98;73.67
49947;BME280;35839;48.662;13.300;2023-04-29T12:00:48;97104.38;;;20.02;74.35
49947;BME280;35839;48.662;13.300;2023-04-29T12:03:14;97098.41;;;19.43;75.67
49947;BME280;35839;48.662;13.300;2023-04-29T12:06:00;97093.00;;;19.25;78.36
49947;BME280;35839;48.662;13.300;2023-04-29T12:08:27;97090.16;;;19.90;80.59
49947;BME280;35839;48.662;13.300;2023-04-29T12:10:56;97082.50;;;20.25;76.88
49947;BME280;35839;48.662;13.300;2023-04-29T12:13:23;97086.50;;;20.78;75.36
49947;BME280;35839;48.662;13.300;2023-04-29T12:15:51;97082.78;;;20.60;75.64
49947;BME280;35839;48.662;13.300;2023-04-29T12:18:17;97088.16;;;22.23;73.52
49947;BME280;35839;48.662;13.300;2023-04-29T12:20:44;97079.28;;;22.82;69.10
49947;BME280;35839;48.662;13.300;2023-04-29T12:23:27;97077.69;;;22.81;64.64
49947;BME280;35839;48.662;13.300;2023-04-29T12:25:55;97079.56;;;23.78;59.69
49947;BME280;35839;48.662;13.300;2023-04-29T12:28:22;97077.06;;;23.60;60.52
49947;BME280;35839;48.662;13.300;2023-04-29T12:30:48;97082.88;;;24.19;54.40
49947;BME280;35839;48.662;13.300;2023-04-29T12:33:18;97081.28;;;23.27;58.54
49947;BME280;35839;48.662;13.300;2023-04-29T12:35:44;97077.16;;;22.43;56.72
49947;BME280;35839;48.662;13.300;2023-04-29T12:38:09;97073.59;;;23.02;57.14
49947;BME280;35839;48.662;13.300;2023-04-29T12:40:35;97083.16;;;22.03;60.64
49947;BME280;35839;48.662;13.300;2023-04-29T12:43:07;97086.81;;;21.91;58.88
49947;BME280;35839;48.662;13.300;2023-04-29T12:45:33;97073.25;;;21.38;60.41
49947;BME280;35839;48.662;13.300;2023-04-29T12:47:59;97077.50;;;22.23;61.49
49947;BME280;35839;48.662;13.300;2023-04-29T12:50:32;97077.69;;;21.86;60.47
49947;BME280;35839;48.662;13.300;2023-04-29T12:52:57;97066.53;;;23.53;56.86
49947;BME280;35839;48.662;13.300;2023-04-29T12:55:23;97070.25;;;23.23;56.67
49947;BME280;35839;48.662;13.300;2023-04-29T12:57:48;97062.84;;;24.38;52.90
49947;BME280;35839;48.662;13.300;2023-04-29T13:00:14;97073.16;;;24.13;54.96
49947;BME280;35839;48.662;13.300;2023-04-29T13:02:40;97063.00;;;23.07;57.39
49947;BME280;35839;48.662;13.300;2023-04-29T13:05:06;97063.34;;;22.35;60.79
49947;BME280;35839;48.662;13.300;2023-04-29T13:07:31;97064.44;;;21.68;62.93
49947;BME280;35839;48.662;13.300;2023-04-29T13:09:57;97059.66;;;21.58;64.03
49947;BME280;35839;48.662;13.300;2023-04-29T13:12:22;97062.47;;;21.33;66.38
49947;BME280;35839;48.662;13.300;2023-04-29T13:14:47;97064.16;;;21.58;66.65
49947;BME280;35839;48.662;13.300;2023-04-29T13:17:12;97069.44;;;21.88;64.81
49947;BME280;35839;48.662;13.300;2023-04-29T13:19:38;97080.28;;;20.66;67.85
49947;BME280;35839;48.662;13.300;2023-04-29T13:22:03;97070.75;;;20.76;64.74
49947;BME280;35839;48.662;13.300;2023-04-29T13:24:29;97077.47;;;20.79;67.31
49947;BME280;35839;48.662;13.300;2023-04-29T13:26:54;97074.88;;;20.54;68.10
49947;BME280;35839;48.662;13.300;2023-04-29T13:29:20;97075.88;;;20.09;69.34
49947;BME280;35839;48.662;13.300;2023-04-29T13:31:45;97077.91;;;20.76;65.46
49947;BME280;35839;48.662;13.300;2023-04-29T13:34:10;97067.94;;;20.71;66.14
49947;BME280;35839;48.662;13.300;2023-04-29T13:36:35;97077.09;;;20.75;67.60
49947;BME280;35839;48.662;13.300;2023-04-29T13:39:01;97077.91;;;20.76;66.14
49947;BME280;35839;48.662;13.300;2023-04-29T13:41:26;97079.97;;;20.30;67.12
49947;BME280;35839;48.662;13.300;2023-04-29T13:43:52;97073.84;;;20.30;69.22
49947;BME280;35839;48.662;13.300;2023-04-29T13:46:17;97076.06;;;20.95;69.05
49947;BME280;35839;48.662;13.300;2023-04-29T13:48:42;97082.97;;;20.66;66.25
49947;BME280;35839;48.662;13.300;2023-04-29T13:51:07;97078.19;;;20.86;67.06
49947;BME280;35839;48.662;13.300;2023-04-29T13:53:33;97064.06;;;21.34;63.56
49947;BME280;35839;48.662;13.300;2023-04-29T13:55:58;97064.31;;;22.28;62.09
49947;BME280;35839;48.662;13.300;2023-04-29T13:58:23;97077.94;;;21.97;63.23
49947;BME280;35839;48.662;13.300;2023-04-29T14:00:49;97076.75;;;22.99;61.44
49947;BME280;35839;48.662;13.300;2023-04-29T14:03:14;97069.84;;;24.06;56.80
49947;BME280;35839;48.662;13.300;2023-04-29T14:05:40;97080.63;;;24.11;54.79
49947;BME280;35839;48.662;13.300;2023-04-29T14:08:05;97079.78;;;24.27;51.32
49947;BME280;35839;48.662;13.300;2023-04-29T14:10:30;97071.31;;;24.69;52.36
49947;BME280;35839;48.662;13.300;2023-04-29T14:12:56;97076.03;;;24.62;52.74
49947;BME280;35839;48.662;13.300;2023-04-29T14:15:21;97081.09;;;23.45;52.15
49947;BME280;35839;48.662;13.300;2023-04-29T14:17:47;97078.72;;;22.68;55.83
49947;BME280;35839;48.662;13.300;2023-04-29T14:20:14;97078.03;;;22.14;57.68
49947;BME280;35839;48.662;13.300;2023-04-29T14:22:40;97076.47;;;22.36;57.34
49947;BME280;35839;48.662;13.300;2023-04-29T14:25:05;97069.50;;;23.56;53.75
49947;BME280;35839;48.662;13.300;2023-04-29T14:27:32;97081.66;;;24.10;50.19
49947;BME280;35839;48.662;13.300;2023-04-29T14:29:58;97075.72;;;24.08;50.42
49947;BME280;35839;48.662;13.300;2023-04-29T14:32:24;97071.94;;;23.12;49.96
49947;BME280;35839;48.662;13.300;2023-04-29T14:34:49;97067.06;;;24.01;49.80
49947;BME280;35839;48.662;13.300;2023-04-29T14:37:14;97068.38;;;23.81;50.34
49947;BME280;35839;48.662;13.300;2023-04-29T14:39:40;97065.91;;;24.30;47.69
49947;BME280;35839;48.662;13.300;2023-04-29T14:42:05;97077.44;;;24.92;46.57
49947;BME280;35839;48.662;13.300;2023-04-29T14:44:30;97086.44;;;24.08;45.46
49947;BME280;35839;48.662;13.300;2023-04-29T14:46:56;97084.88;;;24.29;44.01
49947;BME280;35839;48.662;13.300;2023-04-29T14:49:21;97088.38;;;24.29;44.37
49947;BME280;35839;48.662;13.300;2023-04-29T14:51:46;97097.66;;;22.78;46.28
49947;BME280;35839;48.662;13.300;2023-04-29T14:54:12;97086.19;;;21.65;48.52
49947;BME280;35839;48.662;13.300;2023-04-29T14:56:37;97084.75;;;23.27;43.91
49947;BME280;35839;48.662;13.300;2023-04-29T14:59:02;97076.94;;;24.51;42.42
49947;BME280;35839;48.662;13.300;2023-04-29T15:01:28;97086.88;;;24.94;41.66
49947;BME280;35839;48.662;13.300;2023-04-29T15:03:53;97087.72;;;24.56;41.03
49947;BME280;35839;48.662;13.300;2023-04-29T15:06:18;97081.25;;;23.84;43.72
49947;BME280;35839;48.662;13.300;2023-04-29T15:08:44;97099.72;;;22.88;45.06
49947;BME280;35839;48.662;13.300;2023-04-29T15:11:09;97089.75;;;23.24;44.92
49947;BME280;35839;48.662;13.300;2023-04-29T15:13:35;97088.06;;;22.30;47.69
49947;BME280;35839;48.662;13.300;2023-04-29T15:16:00;97085.53;;;23.56;47.07
49947;BME280;35839;48.662;13.300;2023-04-29T15:18:25;97087.84;;;24.66;45.90
49947;BME280;35839;48.662;13.300;2023-04-29T15:20:51;97088.84;;;25.48;42.48
49947;BME280;35839;48.662;13.300;2023-04-29T15:23:17;97097.63;;;26.73;39.32
49947;BME280;35839;48.662;13.300;2023-04-29T15:25:42;97096.97;;;25.09;40.01
49947;BME280;35839;48.662;13.300;2023-04-29T15:28:09;97101.69;;;23.04;45.08
49947;BME280;35839;48.662;13.300;2023-04-29T15:30:34;97096.25;;;23.85;42.77
49947;BME280;35839;48.662;13.300;2023-04-29T15:33:00;97091.47;;;23.01;45.28
49947;BME280;35839;48.662;13.300;2023-04-29T15:35:25;97107.41;;;22.49;47.04
49947;BME280;35839;48.662;13.300;2023-04-29T15:37:51;97109.78;;;23.79;45.94
49947;BME280;35839;48.662;13.300;2023-04-29T15:40:16;97105.09;;;22.64;45.46
49947;BME280;35839;48.662;13.300;2023-04-29T15:42:42;97102.66;;;23.27;45.00
49947;BME280;35839;48.662;13.300;2023-04-29T15:45:08;97109.53;;;23.80;44.74
49947;BME280;35839;48.662;13.300;2023-04-29T15:47:34;97106.66;;;24.71;41.21
49947;BME280;35839;48.662;13.300;2023-04-29T15:49:59;97111.41;;;24.47;38.88
49947;BME280;35839;48.662;13.300;2023-04-29T15:52:24;97117.72;;;24.24;38.54
49947;BME280;35839;48.662;13.300;2023-04-29T15:54:50;97117.06;;;24.17;39.55
49947;BME280;35839;48.662;13.300;2023-04-29T15:57:15;97105.88;;;24.54;40.83
49947;BME280;35839;48.662;13.300;2023-04-29T15:59:41;97102.28;;;24.65;38.35
49947;BME280;35839;48.662;13.300;2023-04-29T16:02:06;97106.84;;;26.07;36.83
49947;BME280;35839;48.662;13.300;2023-04-29T16:04:37;97116.88;;;27.12;35.88
49947;BME280;35839;48.662;13.300;2023-04-29T16:07:03;97120.09;;;25.64;38.73
49947;BME280;35839;48.662;13.300;2023-04-29T16:09:32;97130.66;;;24.66;39.93
49947;BME280;35839;48.662;13.300;2023-04-29T16:11:58;97133.09;;;23.83;41.61
49947;BME280;35839;48.662;13.300;2023-04-29T16:14:24;97126.84;;;25.45;43.15
49947;BME280;35839;48.662;13.300;2023-04-29T16:16:49;97128.44;;;25.90;39.49
49947;BME280;35839;48.662;13.300;2023-04-29T16:19:15;97131.22;;;26.75;38.17
49947;BME280;35839;48.662;13.300;2023-04-29T16:21:40;97134.22;;;26.46;36.45
49947;BME280;35839;48.662;13.300;2023-04-29T16:24:09;97144.53;;;25.41;38.41
49947;BME280;35839;48.662;13.300;2023-04-29T16:26:34;97136.53;;;25.02;38.94
49947;BME280;35839;48.662;13.300;2023-04-29T16:29:00;97150.91;;;23.77;41.61
49947;BME280;35839;48.662;13.300;2023-04-29T16:31:26;97148.75;;;23.63;43.80
49947;BME280;35839;48.662;13.300;2023-04-29T16:33:52;97156.22;;;24.23;41.01
49947;BME280;35839;48.662;13.300;2023-04-29T16:36:20;97158.66;;;22.98;43.35
49947;BME280;35839;48.662;13.300;2023-04-29T16:38:46;97150.47;;;21.99;46.32
49947;BME280;35839;48.662;13.300;2023-04-29T16:41:11;97166.41;;;21.75;47.90
49947;BME280;35839;48.662;13.300;2023-04-29T16:43:36;97173.78;;;22.03;48.61
49947;BME280;35839;48.662;13.300;2023-04-29T16:46:02;97171.69;;;22.36;46.08
49947;BME280;35839;48.662;13.300;2023-04-29T16:48:27;97185.38;;;21.67;47.77
49947;BME280;35839;48.662;13.300;2023-04-29T16:50:53;97176.97;;;21.52;48.22
49947;BME280;35839;48.662;13.300;2023-04-29T16:53:18;97185.47;;;21.23;48.93
49947;BME280;35839;48.662;13.300;2023-04-29T16:55:44;97191.00;;;21.77;48.20
49947;BME280;35839;48.662;13.300;2023-04-29T16:58:10;97189.31;;;21.27;48.17
49947;BME280;35839;48.662;13.300;2023-04-29T17:00:35;97203.09;;;20.62;49.57
49947;BME280;35839;48.662;13.300;2023-04-29T17:03:00;97202.94;;;20.57;51.42
49947;BME280;35839;48.662;13.300;2023-04-29T17:05:26;97195.94;;;20.63;51.65
49947;BME280;35839;48.662;13.300;2023-04-29T17:07:52;97197.22;;;20.54;51.82
49947;BME280;35839;48.662;13.300;2023-04-29T17:10:17;97208.03;;;20.27;52.20
49947;BME280;35839;48.662;13.300;2023-04-29T17:12:43;97207.69;;;20.24;53.32
49947;BME280;35839;48.662;13.300;2023-04-29T17:15:09;97209.38;;;20.11;54.23
49947;BME280;35839;48.662;13.300;2023-04-29T17:17:34;97209.75;;;20.21;54.37
49947;BME280;35839;48.662;13.300;2023-04-29T17:20:00;97213.03;;;20.17;54.63
49947;BME280;35839;48.662;13.300;2023-04-29T17:22:25;97214.56;;;20.31;54.08
49947;BME280;35839;48.662;13.300;2023-04-29T17:24:51;97218.53;;;20.47;53.38
49947;BME280;35839;48.662;13.300;2023-04-29T17:27:16;97218.91;;;19.94;54.59
49947;BME280;35839;48.662;13.300;2023-04-29T17:29:41;97221.56;;;20.26;54.72
49947;BME280;35839;48.662;13.300;2023-04-29T17:32:07;97226.88;;;20.57;52.96
49947;BME280;35839;48.662;13.300;2023-04-29T17:34:37;97229.47;;;20.32;55.08
49947;BME280;35839;48.662;13.300;2023-04-29T17:37:03;97229.88;;;19.72;54.90
49947;BME280;35839;48.662;13.300;2023-04-29T17:39:29;97234.94;;;19.67;55.97
49947;BME280;35839;48.662;13.300;2023-04-29T17:41:55;97227.22;;;20.36;54.06
49947;BME280;35839;48.662;13.300;2023-04-29T17:44:21;97223.13;;;19.63;56.14
49947;BME280;35839;48.662;13.300;2023-04-29T17:46:46;97227.81;;;20.06;56.33
49947;BME280;35839;48.662;13.300;2023-04-29T17:49:11;97234.09;;;19.80;55.96
49947;BME280;35839;48.662;13.300;2023-04-29T17:51:37;97228.84;;;19.60;57.65
49947;BME280;35839;48.662;13.300;2023-04-29T17:54:02;97243.03;;;19.92;56.79
49947;BME280;35839;48.662;13.300;2023-04-29T17:56:30;97246.84;;;19.58;57.63
49947;BME280;35839;48.662;13.300;2023-04-29T17:59:04;97244.41;;;19.50;58.40
49947;BME280;35839;48.662;13.300;2023-04-29T18:01:31;97249.31;;;19.53;58.48
49947;BME280;35839;48.662;13.300;2023-04-29T18:03:56;97248.06;;;19.69;57.48